Logo AVAMET
Benvolgut visitant, si us plau, ingressa Recuperar contrasenya
AVAMET paisatges

Almenara

Dades diàries. Acumulats / Últims 30 dies disponibles

Data Temperatura (°C) Humitat rel. (%) Pressió rel. (hPa) Vent (km/h) Precipitació
Mínima Mitjana Màxima Amplitud
tèrmica
Mínima Mitjana Màxima Mínima Mitjana Màxima Predom. Mitjana Ràfega
màxima
Total
(mm)
Índex-n
Mínima Mitjana Màxima Mínima Mitjana Màxima n
0 a 1
P0 max
mm 5'
Dades mensuals acumulades fins l'últim dia disponible
05/2020 13,2 17,2 20,8 21,1 19,2 25,0 33,2 20,0 25 69 91 1.002 1.016 1.028   1,1 43,5 15,8
Dades anuals acumulades fins l'últim dia disponible
2020 3,3 11,6 20,8 15,3 10,3 19,4 33,2 29,9 18 73 96 997 1.019 1.034   2,9 85,3 383,0
Últims 30 dies disponibles
26-05-2020 17,4     21,5     25,3 7,9 53 73 87 1.024 1.025 1.026 S 2,2 20,9 0,0
25-05-2020 17,6     20,6     25,1 7,5 58 72 81 1.024 1.026 1.027 ESE 1,8 19,3 0,0
24-05-2020 20,8     22,0     23,6 2,8 66 76 84 1.026 1.027 1.028 ESE 3,2 24,1 0,0
23-05-2020 18,5     23,1     26,8 8,3 49 64 77 1.023 1.024 1.026 ESE 1,8 19,3 0,0
22-05-2020 19,6     23,4     27,3 7,7 54 67 80 1.019 1.022 1.025 ESE 0,3 19,3 0,0
21-05-2020 18,1     23,2     27,9 9,8 47 64 79 1.017 1.019 1.021 SE 0,8 17,7 0,0
20-05-2020 18,3     22,6     26,6 8,3 48 67 81 1.014 1.015 1.017 ESE 0,8 17,7 0,0
19-05-2020 16,7     21,6     25,6 8,9 63 76 81 1.016 1.018 1.020 ESE 1,3 17,7 0,0
18-05-2020 15,2     19,8     23,6 8,4 52 72 84 1.019 1.020 1.021 ESE 0,2 17,7 0,0
17-05-2020 14,8     19,1     22,2 7,4 53 71 87 1.019 1.020 1.021 SSE 0,3 17,7 0,0
16-05-2020 17,2     18,8     21,9 4,7 57 73 83 1.014 1.016 1.019 NW 0,2 20,9 0,0
15-05-2020 13,2     17,5     20,6 7,4 58 72 83 1.010 1.013 1.015 ESE 0,2 20,9 0,0
14-05-2020 14,6     17,0     19,2 4,6 64 80 91 1.003 1.004 1.008 SE 0,0 6,4 14,2 0,50 1,70
13-05-2020 13,8     19,8     26,4 12,6 35 63 86 1.002 1.004 1.006 W 1,9 33,8 0,0
12-05-2020 17,6     19,5     21,8 4,2 50 68 91 1.006 1.008 1.010 ESE 2,4 43,5 1,6
11-05-2020 16,8     22,4     27,9 11,1 47 54 60 1.004 1.006 1.010 W 2,4 43,5 0,0
10-05-2020 17,7     20,6     26,7 9,0 25 66 88 1.002 1.004 1.009 W 2,7 43,5 0,0
09-05-2020 17,7     19,9     22,4 4,7 71 82 88 1.009 1.012 1.015 SE 0,0 17,7 0,0
08-05-2020 16,9     20,1     22,6 5,7 61 75 87 1.014 1.016 1.018 ESE 1,0 32,2 0,0
07-05-2020 17,3     21,1     24,9 7,6 50 71 81 1.017 1.018 1.019 ESE 0,8 24,1 0,0
06-05-2020 17,1     21,3     24,9 7,8 61 76 87 1.014 1.016 1.018 ESE 0,8 19,3 0,0
05-05-2020 17,2     20,9     24,6 7,4 64 75 86 1.013 1.014 1.015 ESE 0,3 17,7 0,0
04-05-2020 17,2     20,3     23,2 6,0 66 78 87 1.014 1.016 1.017 ESE 0,2 14,5 0,0
03-05-2020 18,4     23,1     26,4 8,0 42 59 76 1.016 1.017 1.019 SE 0,6 17,7 0,0
02-05-2020 19,5     24,4     30,0 10,5 35 53 67 1.015 1.017 1.018 ESE 1,0 25,7 0,0
01-05-2020 16,8     24,6     33,2 16,4 25 39 62 1.012 1.015 1.017 NW 2,1 37,0 0,0
30-04-2020 18,2     22,7     27,5 9,3 32 45 62 1.012 1.014 1.015 W 2,7 45,1 0,0
29-04-2020 14,7     20,9     27,6 12,9 28 42 67 1.012 1.015 1.017 W 2,7 38,6 0,0
28-04-2020 12,7     18,1     25,3 12,6 30 57 81 1.011 1.012 1.013 W 1,4 25,7 0,0
27-04-2020 15,2     18,1     21,4 6,2 69 82 89 1.009 1.010 1.012 ESE 0,5 22,5 0,0
Últims 13 mesos disponibles
04/2020 8,9 13,0 18,2 16,2 15,3 19,7 27,6 18,7 42 77 90 1.005 1.016 1.026 ESE 2,2 45,1 66,2
03/2020 6,0 10,9 15,7 14,4 11,2 17,8 26,9 20,9 41 70 93 1.005 1.017 1.026 ESE 5,2 83,7 124,2
02/2020 6,4 10,3 14,4 14,5 14,4 19,5 26,3 19,9 41 72 89 1.012 1.025 1.032 N 2,6 45,1 3,0
01/2020 3,3 7,5 13,3 11,4 10,3 16,0 23,1 19,8 59 75 91 1.016 1.024 1.032 WNW 2,9 85,3 173,8
12/2019 6,2 10,9 17,1 14,2 13,4 18,2 25,3 19,1 48 70 90 1.000 1.018 1.032 NW 4,0 61,2 103,0
11/2019 7,2 12,2 20,0 16,1 15,7 20,4 29,4 22,2 40 53 76 997 1.009 1.017 W 5,7 49,9 3,0
10/2019 11,1 16,5 20,9 20,4 17,2 24,7 29,3 18,2 46 71 84 1.006 1.015 1.021 ESE 3,4 37,0 22,6
09/2019 15,5 20,4 23,3 23,9 21,7 27,2 32,2 16,7 52 72 84 1.009 1.017 1.024 ESE 4,7 62,8 127,0
08/2019 18,3 22,5 26,5 26,3 26,4 29,7 37,8 19,5 54 72 81 1.009 1.015 1.019 ESE 4,3 57,9 41,6
07/2019 21,1 22,8 25,6 26,7 27,7 30,1 33,6 12,5 50 66 78 1.004 1.013 1.020 ESE 4,9 51,5 17,0
06/2019 12,2 18,5 22,4 22,6 21,1 26,3 36,1 23,9 42 64 81 1.007 1.015 1.022 ESE 5,2 46,7 0,0
05/2019 10,3 14,8 17,9 18,5 18,3 22,1 30,2 19,9 49 68 84 1.004 1.015 1.024 SSE 5,2 53,1 16,6
04/2019 8,3 12,1 15,2 15,7 15,9 19,7 28,3 20,0 43 64 91 998 1.012 1.024 W 6,7 69,2 44,0
Tots els anys disponibles
2019 4,0 14,7 26,5 18,6 11,5 22,7 37,8 33,8 28 65 91 993 1.016 1.034 ESE 4,7 72,4 395,2
2018 2,3 14,6 26,7 18,5 9,1 22,5 35,1 32,8 43 73 89 1.000 1.018 1.030 WNW 6,1 78,9 683,0
2017 1,2 14,2 27,1 18,3 9,7 22,4 34,3 33,1 6,4 78,7 331,4
2016 3,3 14,7 25,7 18,5 12,0 22,2 33,7 30,4 6,4 86,9 422,0
2015 2,4 14,5 26,4 18,5 9,0 22,5 41,9 39,5 6,3 82,1 593,6
2014 1,4 12,7 19,6 16,8 12,8 21,5 34,3 32,9 6,0 70,8 270,2
Temperatura (°C)
Humitat relativa (%)
Velocitat del vent i ràfega màxima (km/h)
Direcció del vent (°)
Pressió (hPa)
Precipitació (mm)
Nota sobre les dades: s'avisa a l'usuari de la provisionalitat i no oficialitat d'aquestes dades
Logo AVAMET blanc
Web allotjada a Sollutia
Llicència de Creative CommonsLa web d'AVAMET i els seus continguts estan subjectes a una llicència de
Reconeixement - No Comercial - Compartir igual
Últimes estacions:  Chera (Ajuntament soci), Benifaió (Inforatge), Altea - Com. Regants (Soci) - - -